TAP1902 LPFR-LPPT
Flight info
| Callsign | TAP1902 |
|---|---|
| Flight time | N/A |
| Altitude | 24000 |
| Route | ODEMI DCT VATZI VATZI2A/02 |
| Aircraft | A320/M-SDE3FGHIRWY/LB1 |
Departure
| Time | N/A |
|---|---|
| Airport | Faro - Gago Coutinho International Airport (LPFR) |
Arrival
| Time | 2026-05-03 20:17 |
|---|---|
| Airport | Lisbon Humberto Delgado Airport (LPPT) |
| Time | Latitude | Longitude | Altitude | Speed | Heading |
|---|---|---|---|---|---|
| 2026-05-03 20:15 | 38.70415 | -9.17711 | 1701 ft | 147 kts | 19° |
| 2026-05-03 20:15 | 38.71333 | -9.17222 | 1506 ft | 139 kts | 20° |
| 2026-05-03 20:15 | 38.72207 | -9.16756 | 1318 ft | 134 kts | 17° |
| 2026-05-03 20:15 | 38.73052 | -9.16307 | 1144 ft | 132 kts | 16° |
| 2026-05-03 20:16 | 38.73868 | -9.15873 | 959 ft | 133 kts | 18° |
| 2026-05-03 20:16 | 38.74732 | -9.15422 | 781 ft | 134 kts | 16° |
| 2026-05-03 20:16 | 38.75611 | -9.14953 | 627 ft | 139 kts | 21° |
| 2026-05-03 20:16 | 38.76490 | -9.14471 | 423 ft | 136 kts | 15° |
| 2026-05-03 20:17 | 38.77346 | -9.14025 | 362 ft | 120 kts | 22° |
| 2026-05-03 20:17 | 38.77929 | -9.13701 | 367 ft | 55 kts | 22° |
| 2026-05-03 20:17 | 38.78200 | -9.13555 | 367 ft | 26 kts | 30° |
| 2026-05-03 20:17 | 38.78342 | -9.13398 | 364 ft | 22 kts | 50° |
| 2026-05-03 20:18 | 38.78378 | -9.13315 | 365 ft | 7 kts | 86° |
| 2026-05-03 20:18 | 38.78349 | -9.13260 | 360 ft | 9 kts | 161° |
| 2026-05-03 20:18 | 38.78289 | -9.13281 | 361 ft | 9 kts | 205° |
| 2026-05-03 20:18 | 38.78232 | -9.13312 | 360 ft | 9 kts | 203° |
| 2026-05-03 20:19 | 38.78174 | -9.13344 | 360 ft | 9 kts | 203° |
| 2026-05-03 20:19 | 38.78106 | -9.13380 | 358 ft | 14 kts | 202° |
| 2026-05-03 20:19 | 38.77972 | -9.13405 | 354 ft | 27 kts | 169° |
| 2026-05-03 20:19 | 38.77766 | -9.13346 | 344 ft | 34 kts | 168° |
| 2026-05-03 20:20 | 38.77515 | -9.13302 | 336 ft | 38 kts | 173° |
| 2026-05-03 20:20 | 38.77252 | -9.13239 | 338 ft | 39 kts | 168° |
| 2026-05-03 20:20 | 38.76986 | -9.13170 | 339 ft | 27 kts | 167° |
| 2026-05-03 20:20 | 38.76872 | -9.13128 | 334 ft | 8 kts | 120° |
| 2026-05-03 20:21 | 38.76888 | -9.13071 | 337 ft | 5 kts | 76° |
| 2026-05-03 20:21 | 38.76890 | -9.13059 | 336 ft | 2 kts | 76° |
| 2026-05-03 20:21 | 38.76892 | -9.13048 | 335 ft | 0 kts | 77° |